ESUO weather

Graftavallen Airport
Graftavallen, Jämtlande län, Sweden

Public forecast

Using degrees Celsius for public forecast. Weather courtesy of forecast.io.

METAR (pilot weather report)

Closest report is Åre Östersund Airport, 16.4 nm (30.3 km) NE. Retrieved 2019/07/16 07:20 UTC (22 minutes ago):

ESNZ 160720Z 36009KT 330V030 CAVOK 12/07 Q1013

TAF (pilot weather forecast)

Closest forecast is Trondheim Airport Værnes, 86.8 nm (160.8 km) WNW. Retrieved 2019/07/16 06:57 UTC (45 minutes ago):

TAF ENVA 160500Z 1606/1706 27012KT 9999 SCT015 BKN040 PROB40 1606/1610 -RADZ BKN010 BECMG 1612/1615 VRB07KT